UPSVAC Airport Information Service

New York Newark Liberty International Airport

ICAO: KEWR Country: United States
Latitude: 40.6925 Longitude: -74.1686
Latest Arrival : UPSJUMP (KONT-KEWR) Latest Departure : UPSJUMP (KEWR-KSDF)


WX CaptureLIVE
Data provided by noaa.gov | Fetched at 21:54:57

METAR : KEWR 272119Z 25012KT 10SM SCT015 SCT100 11/07 A3000 RMK AO2 T01060067

TAF : KEWR 272129Z 2721/2824 26010KT P6SM SCT015 FM280300 30007KT P6SM SCT250 FM280800 VRB02KT P6SM SCT250 FM281500 09004KT P6SM VCSH OVC090 FM281800 11005KT 4SM -RA BR OVC008 FM282100 09007KT 3SM -RA BR OVC004


Runway Data for KEWR
Data provided by openaviationdata.com

Runway ID Mag Var Hdg Length Elevation Surface ILS Freq ILS Id ILS Slope
04L -13 38° 11003 ft 18 ft Asphalt 110.75 IEWR 3
04R -13 38° 9983 ft 18 ft Asphalt 108.7 IEZA 3
11 -13 108° 6790 ft 18 ft Asphalt 109.15 IGPR 3
22L -13 218° 9983 ft 18 ft Asphalt 108.7 ILSQ 3
22R -13 218° 11003 ft 18 ft Asphalt 110.75 IJNN 3
29 -13 288° 6790 ft 18 ft Asphalt -- -- --

New York Newark Liberty International Airport, United States
Use only for reference purposes



Not for navigational purposes.